SBBR/BSB METAR and TAF weather

Enter ICAO airport designator
Station Type Date Time Source
SBBR METAR 2020/04/04 10:00 UTC NOAA

SBBR 041000Z 20003KT 160V270 9999 FEW020 SCT100 21/19 Q1017


Station Type Date Time Source
SBBR Decoded METAR 2020/04/04 10:00 UTC NOAA

Brasilia Aeroporto , Brazil (SBBR) 15-52S 047-56W 1061M
Apr 04, 2020 - 06:00 AM EDT / 2020.04.04 1000 UTC
Wind: from the SSW (200 degrees) at 3 MPH (3 KT) (direction variable):0
Visibility: greater than 7 mile(s):0
Sky conditions: partly cloudy
Temperature: 69 F (21 C)
Dew Point: 66 F (19 C)
Relative Humidity: 88%
Pressure (altimeter): 30.03 in. Hg (1017 hPa)
ob: SBBR 041000Z 20003KT 160V270 9999 FEW020 SCT100 21/19 Q1017
cycle: 10

Station Type Date Time Source
SBBR TAF 2020/04/04 12:59 UTC NOAA

TAF SBBR 040900Z 0412/0512 30005KT 9999 SCT030 TX30/0418Z TN22/0508Z
TEMPO 0415/0422 25008KT SCT030 FEW035TCU
RMK PEB

Example: see airport list